FAPP

Polokwane International Airport

Potgietersrus, South Africa
METAR FAPP 110200Z AUTO 06007KT //// // ////// 15/13 Q1020
Observed Flight Rules
Dec-11 @ 02:00 UTC (an hour ago)
Wind
60° at 7 knots
Temperatures Readings
Current 15°C / 59°F
Dewpoint 13°C / 55°F
Humidity 88%
Altimeter 30.12" Hg
Pressure 1020 hPa
Elevation 1242
METAR FAPP 110200Z AUTO 06007KT //// // ////// 15/13 Q1020
Observed Flight Rules
Dec-11 @ 02:00 UTC
(an hour ago)
Wind
60° at 7 knots
Temperature Dewpoint
15°C / 59°F 13°C / 55°F
Humidity Altimeter Pressure
88% 30.12" Hg 1020 hPa